Time;durP1;ratioP1;P1;durP2;ratioP2;P2;SDS_P1;SDS_P2;PMS_P1;PMS_P2;Temp;Humidity;BMP_temperature;BMP_pressure;BME280_temperature;BME280_humidity;BME280_pressure;Samples;Min_cycle;Max_cycle;Signal;HPM_P1;HPM_P2
2023/04/22 00:00:57;;;;;;;1999.90;999.90;;;10.60;99.90;;;;;;5076798;28;20390;-73
2023/04/22 00:03:23;;;;;;;1999.90;999.90;;;10.60;99.90;;;;;;5075999;28;20041;-72
2023/04/22 00:05:48;;;;;;;1999.90;999.90;;;10.60;99.90;;;;;;5076293;28;20032;-72
2023/04/22 00:08:14;;;;;;;1999.90;999.90;;;10.60;99.90;;;;;;5076869;28;20036;-72
2023/04/22 00:10:39;;;;;;;1999.90;999.90;;;10.70;99.90;;;;;;5076762;28;20100;-72
2023/04/22 00:13:05;;;;;;;1999.90;999.90;;;10.70;99.90;;;;;;5076800;28;20105;-72
2023/04/22 00:15:31;;;;;;;1999.90;999.90;;;10.70;99.90;;;;;;5076307;28;20036;-72
2023/04/22 00:17:57;;;;;;;1999.90;999.90;;;10.70;99.90;;;;;;5076384;28;20044;-74
2023/04/22 00:20:24;;;;;;;1999.90;999.90;;;10.70;99.90;;;;;;5076576;28;20522;-71
2023/04/22 00:22:50;;;;;;;1999.90;999.90;;;10.70;99.90;;;;;;5076553;28;20033;-74
2023/04/22 00:25:15;;;;;;;1999.90;999.90;;;10.70;99.90;;;;;;5076130;28;20029;-72
2023/04/22 00:27:41;;;;;;;1999.90;999.90;;;10.70;99.90;;;;;;5076425;28;20033;-72
2023/04/22 00:30:08;;;;;;;1999.90;999.90;;;10.70;99.90;;;;;;5076363;28;20040;-73
2023/04/22 00:32:34;;;;;;;1999.90;999.90;;;10.70;99.90;;;;;;5076058;28;20037;-73
2023/04/22 00:34:59;;;;;;;1999.90;999.90;;;10.70;99.90;;;;;;5075806;28;20035;-73
2023/04/22 00:37:25;;;;;;;1999.90;999.90;;;10.70;99.90;;;;;;5076196;28;20033;-73
2023/04/22 00:39:50;;;;;;;1999.90;999.90;;;10.60;99.90;;;;;;5076185;28;20052;-72
2023/04/22 00:42:16;;;;;;;1999.90;999.90;;;10.60;99.90;;;;;;5057839;28;20025;-72
2023/04/22 00:44:42;;;;;;;1999.90;999.90;;;10.60;99.90;;;;;;5075996;28;20040;-74
2023/04/22 00:47:08;;;;;;;1999.90;999.90;;;10.50;99.90;;;;;;5075449;28;20029;-74
2023/04/22 00:49:35;;;;;;;1999.90;999.90;;;10.50;99.90;;;;;;5076524;28;20045;-74
2023/04/22 00:52:01;;;;;;;1999.90;999.90;;;10.50;99.90;;;;;;5075937;28;20035;-74
2023/04/22 00:54:27;;;;;;;1999.90;999.90;;;10.50;99.90;;;;;;5075788;28;20029;-74
2023/04/22 00:56:53;;;;;;;1999.90;999.90;;;10.50;99.90;;;;;;5057479;28;20028;-74
2023/04/22 00:59:19;;;;;;;1999.90;999.90;;;10.50;99.90;;;;;;5075732;28;20037;-75
2023/04/22 01:01:45;;;;;;;1999.90;999.90;;;10.40;99.90;;;;;;5057249;28;20788;-74
2023/04/22 01:04:13;;;;;;;1999.90;999.90;;;10.40;99.90;;;;;;5075552;28;20097;-74
2023/04/22 01:06:40;;;;;;;1999.90;999.90;;;10.40;99.90;;;;;;5075642;28;20025;-72
2023/04/22 01:09:06;;;;;;;1999.90;999.90;;;10.40;99.90;;;;;;5075863;28;20037;-72
2023/04/22 01:11:34;;;;;;;1999.90;999.90;;;10.40;99.90;;;;;;5075835;28;20029;-72
2023/04/22 01:13:59;;;;;;;1999.90;999.90;;;10.40;99.90;;;;;;5075385;28;20032;-72
2023/04/22 01:16:27;;;;;;;1999.90;999.90;;;10.40;99.90;;;;;;5074334;28;20024;-72
2023/04/22 01:18:53;;;;;;;1999.90;999.90;;;10.40;99.90;;;;;;5075510;28;20439;-72
2023/04/22 01:21:19;;;;;;;1999.90;999.90;;;10.30;99.90;;;;;;5075592;28;20029;-74
2023/04/22 01:23:44;;;;;;;1999.90;999.90;;;10.30;99.90;;;;;;5075567;28;20033;-72
2023/04/22 01:26:10;;;;;;;1999.90;999.90;;;10.20;99.90;;;;;;5075243;28;20077;-72
2023/04/22 01:28:36;;;;;;;1999.90;999.90;;;10.20;99.90;;;;;;5075449;28;20033;-72
2023/04/22 01:31:02;;;;;;;1999.90;999.90;;;10.20;99.90;;;;;;5075058;28;20029;-73
2023/04/22 01:33:28;;;;;;;1999.90;999.90;;;10.10;99.90;;;;;;5075273;28;20060;-74
2023/04/22 01:35:54;;;;;;;1999.90;999.90;;;10.10;99.90;;;;;;5074986;28;20104;-73
2023/04/22 01:38:19;;;;;;;1999.90;999.90;;;10.10;99.90;;;;;;5075365;28;20045;-73
2023/04/22 01:40:45;;;;;;;1999.90;999.90;;;10.10;99.90;;;;;;5075361;28;20471;-73
2023/04/22 01:43:11;;;;;;;1999.90;999.90;;;10.00;99.90;;;;;;5075082;28;20039;-73
2023/04/22 01:45:36;;;;;;;1999.90;999.90;;;10.10;99.90;;;;;;5055643;28;20095;-73
2023/04/22 01:48:03;;;;;;;1999.90;999.90;;;10.10;99.90;;;;;;5075064;28;20079;-73
2023/04/22 01:50:28;;;;;;;1999.90;999.90;;;10.00;99.90;;;;;;5074796;28;20068;-73
2023/04/22 01:52:54;;;;;;;1999.90;999.90;;;10.10;99.90;;;;;;5074836;28;20060;-73
2023/04/22 01:55:20;;;;;;;1999.90;999.90;;;10.00;99.90;;;;;;5074088;28;20079;-73
2023/04/22 01:57:46;;;;;;;1999.90;999.90;;;10.00;99.90;;;;;;5074699;28;20037;-73
2023/04/22 02:00:11;;;;;;;1999.90;999.90;;;10.00;99.90;;;;;;5074936;28;20053;-73
2023/04/22 02:02:37;;;;;;;1999.90;999.90;;;10.00;99.90;;;;;;5074985;28;20033;-73
2023/04/22 02:05:05;;;;;;;1999.90;999.90;;;10.00;99.90;;;;;;5056136;28;20116;-73
2023/04/22 02:07:30;;;;;;;1999.90;999.90;;;10.00;99.90;;;;;;5074913;28;20521;-73
2023/04/22 02:09:56;;;;;;;1999.90;999.90;;;10.00;99.90;;;;;;5056667;28;20036;-72
2023/04/22 02:12:21;;;;;;;1999.90;999.90;;;9.90;99.90;;;;;;5074457;28;20029;-72
2023/04/22 02:14:47;;;;;;;1999.90;999.90;;;9.90;99.90;;;;;;5074467;28;20036;-72
2023/04/22 02:17:13;;;;;;;1999.90;999.90;;;9.90;99.90;;;;;;5074525;28;20033;-73
2023/04/22 02:19:38;;;;;;;1999.90;999.90;;;9.90;99.90;;;;;;5074574;28;20041;-72
2023/04/22 02:22:04;;;;;;;1999.90;999.90;;;9.90;99.90;;;;;;5056397;28;20035;-72
2023/04/22 02:24:30;;;;;;;1999.90;999.90;;;9.90;99.90;;;;;;5074256;28;20104;-72
2023/04/22 02:26:55;;;;;;;1999.90;999.90;;;9.90;99.90;;;;;;5073901;28;20029;-72
2023/04/22 02:29:23;;;;;;;1999.90;999.90;;;9.80;99.90;;;;;;5074537;28;20506;-72
2023/04/22 02:31:48;;;;;;;1999.90;999.90;;;9.80;99.90;;;;;;5074396;28;20029;-74
2023/04/22 02:34:14;;;;;;;1999.90;999.90;;;9.80;99.90;;;;;;5074371;28;20039;-72
2023/04/22 02:36:39;;;;;;;1999.90;999.90;;;9.70;99.90;;;;;;5074467;28;20061;-73
2023/04/22 02:39:05;;;;;;;1999.90;999.90;;;9.70;99.90;;;;;;5074461;28;20044;-73
2023/04/22 02:41:30;;;;;;;1999.90;999.90;;;9.70;99.90;;;;;;5074204;28;20029;-73
2023/04/22 02:43:58;;;;;;;1999.90;999.90;;;9.60;99.90;;;;;;5074125;28;20720;-73
2023/04/22 02:46:24;;;;;;;1999.90;999.90;;;9.60;99.90;;;;;;5074629;28;20044;-74
2023/04/22 02:48:49;;;;;;;1999.90;999.90;;;9.50;99.90;;;;;;5074312;28;20056;-74
2023/04/22 02:51:15;;;;;;;1999.90;999.90;;;9.60;99.90;;;;;;5074044;28;20040;-74
2023/04/22 02:53:40;;;;;;;1999.90;999.90;;;9.50;99.90;;;;;;5074235;28;20033;-74
2023/04/22 02:56:09;;;;;;;1999.90;999.90;;;9.50;99.90;;;;;;5073775;28;20033;-74
2023/04/22 02:58:34;;;;;;;1999.90;999.90;;;9.50;99.90;;;;;;5073977;28;20044;-74
2023/04/22 03:01:00;;;;;;;1999.90;999.90;;;9.50;99.90;;;;;;5074167;28;20033;-74
2023/04/22 03:03:26;;;;;;;1999.90;999.90;;;9.40;99.90;;;;;;5074299;28;20033;-74
2023/04/22 03:05:51;;;;;;;1999.90;999.90;;;9.30;99.90;;;;;;5073705;28;20037;-74
2023/04/22 03:08:18;;;;;;;1999.90;999.90;;;9.30;99.90;;;;;;5074142;28;20040;-74
2023/04/22 03:10:43;;;;;;;1999.90;999.90;;;9.30;99.90;;;;;;5073929;28;20040;-73
2023/04/22 03:13:09;;;;;;;1999.90;999.90;;;9.20;99.90;;;;;;5074001;28;20036;-73
2023/04/22 03:15:35;;;;;;;1999.90;999.90;;;9.20;99.90;;;;;;5073508;28;20037;-72
2023/04/22 03:18:00;;;;;;;1999.90;999.90;;;9.20;99.90;;;;;;5073952;28;20095;-73
2023/04/22 03:20:26;;;;;;;1999.90;999.90;;;9.20;99.90;;;;;;5073939;28;20047;-72
2023/04/22 03:22:51;;;;;;;1999.90;999.90;;;9.10;99.90;;;;;;5073996;28;20044;-73
2023/04/22 03:25:17;;;;;;;1999.90;999.90;;;9.20;99.90;;;;;;5073174;28;20047;-72
2023/04/22 03:27:43;;;;;;;1999.90;999.90;;;9.10;99.90;;;;;;5073869;28;20104;-72
2023/04/22 03:30:09;;;;;;;1999.90;999.90;;;9.10;99.90;;;;;;5073878;28;20032;-72
2023/04/22 03:32:34;;;;;;;1999.90;999.90;;;9.10;99.90;;;;;;5073800;28;20029;-72
2023/04/22 03:35:00;;;;;;;1999.90;999.90;;;9.10;99.90;;;;;;5073261;28;20037;-72
2023/04/22 03:37:25;;;;;;;1999.90;999.90;;;9.10;99.90;;;;;;5073835;28;20811;-72
2023/04/22 03:39:51;;;;;;;1999.90;999.90;;;9.10;99.90;;;;;;5076666;28;20410;-74
2023/04/22 03:42:16;;;;;;;1999.90;999.90;;;9.00;99.90;;;;;;5077237;28;20029;-72
2023/04/22 03:44:42;;;;;;;1999.90;999.90;;;9.00;99.90;;;;;;5076619;28;20612;-74
2023/04/22 03:47:08;;;;;;;1999.90;999.90;;;9.00;99.90;;;;;;5076770;28;20467;-74
2023/04/22 03:49:33;;;;;;;1999.90;999.90;;;8.90;99.90;;;;;;5073600;28;20095;-72
2023/04/22 03:51:59;;;;;;;1999.90;999.90;;;8.90;99.90;;;;;;5056838;28;20034;-74
2023/04/22 03:54:25;;;;;;;1999.90;999.90;;;8.90;99.90;;;;;;5056319;28;20033;-74
2023/04/22 03:56:51;;;;;;;1999.90;999.90;;;8.80;99.90;;;;;;5056419;28;20120;-75
2023/04/22 03:59:17;;;;;;;1999.90;999.90;;;8.80;99.90;;;;;;5038570;28;20048;-75
2023/04/22 04:01:45;;;;;;;1999.90;999.90;;;8.80;99.90;;;;;;5056772;28;20033;-74
2023/04/22 04:04:11;;;;;;;1999.90;999.90;;;8.70;99.90;;;;;;5056417;28;20044;-74
2023/04/22 04:06:36;;;;;;;1999.90;999.90;;;8.70;99.90;;;;;;5056670;28;20502;-72
2023/04/22 04:09:02;;;;;;;1999.90;999.90;;;8.70;99.90;;;;;;5056470;28;20037;-72
2023/04/22 04:11:28;;;;;;;1999.90;999.90;;;8.70;99.90;;;;;;5056581;28;20025;-72
2023/04/22 04:13:54;;;;;;;1999.90;999.90;;;8.70;99.90;;;;;;5038092;28;20407;-72
2023/04/22 04:16:19;;;;;;;1999.90;999.90;;;8.60;99.90;;;;;;5056155;28;20133;-72
2023/04/22 04:18:48;;;;;;;1999.90;999.90;;;8.60;99.90;;;;;;5056373;28;20087;-72
2023/04/22 04:21:13;;;;;;;1999.90;999.90;;;8.50;99.90;;;;;;5056305;28;20037;-72
2023/04/22 04:23:39;;;;;;;1999.90;999.90;;;8.50;99.90;;;;;;5055894;28;20442;-72
2023/04/22 04:26:04;;;;;;;1999.90;999.90;;;8.50;99.90;;;;;;5056047;28;20079;-73
2023/04/22 04:28:31;;;;;;;1999.90;999.90;;;8.40;99.90;;;;;;5056354;28;20033;-72
2023/04/22 04:30:58;;;;;;;1999.90;999.90;;;8.40;99.90;;;;;;5056377;28;20032;-72
2023/04/22 04:33:23;;;;;;;1999.90;999.90;;;8.30;99.90;;;;;;5056249;28;20036;-72
2023/04/22 04:35:50;;;;;;;1999.90;999.90;;;8.30;99.90;;;;;;5055677;28;20051;-72
2023/04/22 04:38:16;;;;;;;1999.90;999.90;;;8.30;99.90;;;;;;5055976;28;20077;-72
2023/04/22 04:40:42;;;;;;;1999.90;999.90;;;8.30;99.90;;;;;;5056094;28;20089;-72
2023/04/22 04:43:08;;;;;;;1999.90;999.90;;;8.30;99.90;;;;;;5056076;28;20061;-72
2023/04/22 04:45:35;;;;;;;1999.90;999.90;;;8.30;99.90;;;;;;5057877;28;20071;-72
2023/04/22 04:48:02;;;;;;;1999.90;999.90;;;8.20;99.90;;;;;;5058589;28;20522;-72
2023/04/22 04:50:27;;;;;;;1999.90;999.90;;;8.30;99.90;;;;;;5056277;28;20038;-72
2023/04/22 04:52:53;;;;;;;1999.90;999.90;;;8.30;99.90;;;;;;5056461;28;20045;-72
2023/04/22 04:55:19;;;;;;;1999.90;999.90;;;8.30;99.90;;;;;;5055642;28;20030;-73
2023/04/22 04:57:45;;;;;;;1999.90;999.90;;;8.30;99.90;;;;;;5055930;28;20033;-73
2023/04/22 05:00:12;;;;;;;1999.90;999.90;;;8.40;99.90;;;;;;5055692;28;20080;-73
2023/04/22 05:02:38;;;;;;;1999.90;999.90;;;8.50;99.90;;;;;;5055628;28;20079;-73
2023/04/22 05:05:05;;;;;;;1999.90;999.90;;;8.50;99.90;;;;;;5055010;28;20094;-73
2023/04/22 05:07:31;;;;;;;1999.90;999.90;;;8.70;99.90;;;;;;5055427;28;20037;-73
2023/04/22 05:09:56;;;;;;;1999.90;999.90;;;8.70;99.90;;;;;;5055643;28;20053;-71
2023/04/22 05:12:22;;;;;;;1999.90;999.90;;;8.80;99.90;;;;;;5055537;28;20083;-71
2023/04/22 05:14:47;;;;;;;1999.90;999.90;;;8.80;99.90;;;;;;5055375;28;20033;-72
2023/04/22 05:17:13;;;;;;;1999.90;999.90;;;8.90;99.90;;;;;;5055203;28;20026;-72
2023/04/22 05:19:39;;;;;;;1999.90;999.90;;;9.00;99.90;;;;;;5036826;28;20041;-72
2023/04/22 05:22:06;;;;;;;1999.90;999.90;;;9.00;99.90;;;;;;5065327;28;20033;-71
2023/04/22 05:24:32;;;;;;;1999.90;999.90;;;9.10;99.90;;;;;;5063945;28;20491;-72
2023/04/22 05:26:58;;;;;;;1999.90;999.90;;;9.10;99.90;;;;;;5065283;28;20033;-72
2023/04/22 05:29:23;;;;;;;1999.90;999.90;;;9.10;99.90;;;;;;5065273;28;20096;-72
2023/04/22 05:31:49;;;;;;;1999.90;999.90;;;9.20;99.90;;;;;;5063788;28;20501;-72
2023/04/22 05:34:14;;;;;;;1999.90;999.90;;;9.20;99.90;;;;;;5064032;28;20040;-72
2023/04/22 05:36:40;;;;;;;1999.90;999.90;;;9.20;99.90;;;;;;5063819;28;20499;-72
2023/04/22 05:39:06;;;;;;;1999.90;999.90;;;9.20;99.90;;;;;;5063730;28;20075;-72
2023/04/22 05:41:31;;;;;;;1999.90;999.90;;;9.30;99.90;;;;;;5063401;28;20037;-72
2023/04/22 05:43:57;;;;;;;1999.90;999.90;;;9.30;99.90;;;;;;5065006;28;20099;-72
2023/04/22 05:46:22;;;;;;;1999.90;999.90;;;9.30;99.90;;;;;;5064359;28;20391;-72
2023/04/22 05:48:48;;;;;;;1999.90;999.90;;;9.30;99.90;;;;;;5075621;28;20487;-72
2023/04/22 05:51:14;;;;;;;1999.90;999.90;;;9.40;99.90;;;;;;5075268;28;20048;-72
2023/04/22 05:53:39;;;;;;;1999.90;999.90;;;9.50;99.90;;;;;;5075203;28;20033;-72
2023/04/22 05:56:05;;;;;;;1999.90;999.90;;;9.60;99.90;;;;;;5074674;28;20039;-72
2023/04/22 05:58:30;;;;;;;1999.90;999.90;;;9.70;99.90;;;;;;5074695;28;20041;-72
2023/04/22 06:00:56;;;;;;;1999.90;999.90;;;9.90;99.90;;;;;;5074459;28;20040;-72
2023/04/22 06:03:22;;;;;;;1999.90;999.90;;;10.00;99.90;;;;;;5074867;28;20160;-72
2023/04/22 06:05:47;;;;;;;1999.90;999.90;;;10.00;99.90;;;;;;5074432;28;20033;-72
2023/04/22 06:08:13;;;;;;;1999.90;999.90;;;10.10;99.90;;;;;;5056461;28;20407;-72
2023/04/22 06:10:38;;;;;;;1999.90;999.90;;;10.30;99.90;;;;;;5074753;28;20041;-72
2023/04/22 06:13:04;;;;;;;1999.90;999.90;;;10.40;99.90;;;;;;5074836;28;20047;-72
2023/04/22 06:15:29;;;;;;;1999.90;999.90;;;10.50;99.90;;;;;;5074942;28;20033;-77
2023/04/22 06:17:55;;;;;;;1999.90;999.90;;;10.60;99.90;;;;;;5070729;28;20037;-77
2023/04/22 06:20:21;;;;;;;1999.90;999.90;;;10.60;99.90;;;;;;5036175;28;20041;-77
2023/04/22 06:22:46;;;;;;;1999.90;999.90;;;10.70;99.90;;;;;;5054567;28;20037;-75
2023/04/22 06:25:12;;;;;;;1999.90;999.90;;;10.80;99.90;;;;;;5054070;28;20483;-77
2023/04/22 06:27:37;;;;;;;1999.90;999.90;;;10.90;99.90;;;;;;5054427;28;20041;-77
2023/04/22 06:30:04;;;;;;;1999.90;999.90;;;11.00;99.90;;;;;;5036153;28;20506;-76
2023/04/22 06:32:30;;;;;;;1999.90;999.90;;;11.10;99.90;;;;;;5054592;28;20486;-75
2023/04/22 06:34:55;;;;;;;1999.90;999.90;;;11.10;99.90;;;;;;5053764;28;20068;-74
2023/04/22 06:37:21;;;;;;;1999.90;999.90;;;11.30;99.90;;;;;;5054690;28;20044;-78
2023/04/22 06:39:46;;;;;;;1999.90;999.90;;;11.50;99.90;;;;;;5036057;28;20041;-74
2023/04/22 06:42:12;;;;;;;1999.90;999.90;;;11.60;99.90;;;;;;5057534;28;20041;-74
2023/04/22 06:44:37;;;;;;;1999.90;999.90;;;11.70;99.90;;;;;;5072984;28;20037;-74
2023/04/22 06:47:03;;;;;;;1999.90;999.90;;;11.80;99.90;;;;;;5073674;28;20041;-74
2023/04/22 06:49:29;;;;;;;1999.90;999.90;;;12.00;99.90;;;;;;5075701;28;20041;-74
2023/04/22 06:51:54;;;;;;;1999.90;999.90;;;12.20;99.90;;;;;;5071786;28;20033;-75
2023/04/22 06:54:20;;;;;;;1999.90;999.90;;;12.50;99.90;;;;;;5073125;28;20032;-77
2023/04/22 06:56:45;;;;;;;1999.90;999.90;;;12.90;99.90;;;;;;5074200;28;20082;-75
2023/04/22 06:59:11;;;;;;;1999.90;999.90;;;13.20;99.90;;;;;;5073836;28;20048;-75
2023/04/22 07:01:37;;;;;;;1999.90;999.90;;;13.50;99.90;;;;;;5074220;28;20470;-75
2023/04/22 07:04:02;;;;;;;1999.90;999.90;;;13.80;99.90;;;;;;5073632;28;20419;-75
2023/04/22 07:06:28;;;;;;;1999.90;999.90;;;14.10;99.90;;;;;;5073904;28;20036;-81
2023/04/22 07:08:53;;;;;;;1999.90;999.90;;;14.30;99.90;;;;;;5073868;28;20049;-73
2023/04/22 07:11:20;;;;;;;1999.90;999.90;;;14.40;99.90;;;;;;5074251;28;20033;-74
2023/04/22 07:13:45;;;;;;;1999.90;999.90;;;14.40;99.90;;;;;;5075420;28;20040;-77
2023/04/22 07:16:11;;;;;;;1999.90;999.90;;;13.60;99.90;;;;;;5059331;28;20033;-77
2023/04/22 07:18:38;;;;;;;1999.90;999.90;;;14.30;99.90;;;;;;5077622;28;20052;-79
2023/04/22 07:21:04;;;;;;;1999.90;999.90;;;14.10;99.90;;;;;;5076094;28;20025;-79
2023/04/22 07:23:29;;;;;;;1999.90;999.90;;;14.10;99.90;;;;;;5076502;28;20036;-77
2023/04/22 07:25:55;;;;;;;1999.90;999.90;;;14.00;99.90;;;;;;5058870;28;20039;-78
2023/04/22 07:28:20;;;;;;;1999.90;999.90;;;14.10;99.90;;;;;;5059204;28;20043;-77
2023/04/22 07:30:46;;;;;;;1999.90;999.90;;;14.20;99.90;;;;;;5077687;28;20048;-76
2023/04/22 07:33:11;;;;;;;1999.90;999.90;;;14.40;99.90;;;;;;5077309;28;20036;-76
2023/04/22 07:35:37;;;;;;;1999.90;999.90;;;14.80;99.90;;;;;;5076529;28;20056;-76
2023/04/22 07:38:02;;;;;;;1999.90;999.90;;;14.90;99.90;;;;;;5080629;28;20447;-78
2023/04/22 07:40:28;;;;;;;1999.90;999.90;;;15.00;99.90;;;;;;5077673;28;20033;-79
2023/04/22 07:42:54;;;;;;;1999.90;999.90;;;15.10;99.90;;;;;;5078194;28;20033;-77
2023/04/22 07:45:19;;;;;;;1999.90;999.90;;;15.20;99.90;;;;;;5077181;28;20063;-80
2023/04/22 07:47:45;;;;;;;1999.90;999.90;;;15.30;99.90;;;;;;5062090;28;20037;-78
2023/04/22 07:50:11;;;;;;;1999.90;999.90;;;15.40;99.90;;;;;;5079599;28;20502;-75
2023/04/22 07:52:36;;;;;;;1999.90;999.90;;;15.50;99.90;;;;;;5086260;28;20115;-83
2023/04/22 07:55:02;;;;;;;1999.90;999.90;;;15.60;99.90;;;;;;5085912;28;20068;-76
2023/04/22 07:57:28;;;;;;;1999.90;999.90;;;15.90;99.90;;;;;;5077245;28;20040;-74
2023/04/22 07:59:53;;;;;;;1999.90;999.90;;;16.10;99.90;;;;;;5077304;28;20116;-74
2023/04/22 08:02:19;;;;;;;1999.90;999.90;;;16.30;99.90;;;;;;5077186;28;20033;-77
2023/04/22 08:04:44;;;;;;;1999.90;999.90;;;16.50;99.90;;;;;;5078102;28;20076;-75
2023/04/22 08:07:10;;;;;;;1999.90;999.90;;;16.70;99.90;;;;;;5077931;28;20060;-80
2023/04/22 08:09:35;;;;;;;1999.90;999.90;;;17.00;99.90;;;;;;5060828;28;20079;-79
2023/04/22 08:12:01;;;;;;;1999.90;999.90;;;17.60;99.90;;;;;;5079570;28;20033;-79
2023/04/22 08:14:27;;;;;;;1999.90;999.90;;;17.70;99.90;;;;;;5060704;28;20037;-76
2023/04/22 08:16:53;;;;;;;1999.90;999.90;;;18.00;99.90;;;;;;5076776;28;20383;-75
2023/04/22 08:19:19;;;;;;;1999.90;999.90;;;18.20;99.90;;;;;;5070696;28;20651;-80
2023/04/22 08:21:45;;;;;;;1999.90;999.90;;;18.50;99.90;;;;;;5068737;28;20048;-76
2023/04/22 08:24:11;;;;;;;1999.90;999.90;;;18.80;98.90;;;;;;5071803;28;20064;-78
2023/04/22 08:26:38;;;;;;;1999.90;999.90;;;19.10;99.20;;;;;;5076253;28;20183;-75
2023/04/22 08:29:04;;;;;;;1999.90;999.90;;;19.20;97.60;;;;;;5076503;28;20052;-75
2023/04/22 08:31:30;;;;;;;1999.90;999.90;;;18.90;97.10;;;;;;5077665;28;20467;-74
2023/04/22 08:33:55;;;;;;;1999.90;999.90;;;19.00;98.50;;;;;;5058639;28;20068;-75
2023/04/22 08:36:26;;;;;;;1999.90;999.90;;;19.10;98.10;;;;;;5055868;28;20503;-77
2023/04/22 08:38:51;;;;;;;1999.90;999.90;;;19.00;98.40;;;;;;5038799;28;20045;-78
2023/04/22 08:41:23;;;;;;;1999.90;999.90;;;18.90;98.00;;;;;;5056385;28;20041;-75
2023/04/22 08:43:49;;;;;;;1999.90;999.90;;;19.00;96.70;;;;;;5056265;28;20033;-75
2023/04/22 08:46:18;;;;;;;1999.90;999.90;;;18.90;97.00;;;;;;5087001;22;20591;-81
2023/04/22 08:48:46;;;;;;;1999.90;999.90;;;18.80;97.20;;;;;;5063491;28;20136;-84
2023/04/22 08:51:14;;;;;;;1999.90;999.90;;;18.70;98.30;;;;;;5083818;28;20041;-82
2023/04/22 08:53:39;;;;;;;1999.90;999.90;;;18.80;99.20;;;;;;5067839;28;20813;-84
2023/04/22 08:56:05;;;;;;;1999.90;999.90;;;18.80;97.20;;;;;;5064755;28;20039;-82
2023/04/22 08:58:33;;;;;;;1999.90;999.90;;;18.80;97.00;;;;;;5068657;28;20116;-82
2023/04/22 09:01:00;;;;;;;1999.90;999.90;;;18.90;97.40;;;;;;5068545;28;20036;-82
2023/04/22 09:03:29;;;;;;;1999.90;999.90;;;18.70;98.20;;;;;;5073323;28;20091;-83
2023/04/22 09:05:56;;;;;;;1999.90;999.90;;;18.70;99.90;;;;;;5037903;28;20036;-83
2023/04/22 09:08:23;;;;;;;1999.90;999.90;;;19.00;99.30;;;;;;5043070;28;20025;-81
2023/04/22 09:10:49;;;;;;;1999.90;999.90;;;19.20;96.30;;;;;;5021990;28;20030;-81
2023/04/22 09:13:16;;;;;;;1999.90;999.90;;;19.40;93.00;;;;;;5039126;28;20037;-82
2023/04/22 09:15:42;;;;;;;1999.90;999.90;;;19.40;91.40;;;;;;5024199;28;20062;-83
2023/04/22 09:18:08;;;;;;;1999.90;999.90;;;19.40;90.20;;;;;;5041538;28;20067;-83
2023/04/22 09:20:34;;;;;;;1999.90;999.90;;;19.40;91.10;;;;;;5041556;28;20033;-83
2023/04/22 09:23:06;;;;;;;1999.90;999.90;;;19.70;90.60;;;;;;5041869;28;20033;-83
2023/04/22 09:25:34;;;;;;;1999.90;999.90;;;19.70;88.90;;;;;;5043230;28;20033;-81
2023/04/22 09:28:00;;;;;;;1999.90;999.90;;;19.70;89.80;;;;;;5044765;28;20025;-82
2023/04/22 09:30:36;;;;;;;1999.90;999.90;;;19.80;89.00;;;;;;5045112;28;20172;-81
2023/04/22 09:33:04;;;;;;;1999.90;999.90;;;20.00;87.20;;;;;;5041636;28;20522;-82
2023/04/22 09:35:31;;;;;;;1999.90;999.90;;;20.10;87.40;;;;;;5057303;28;20113;-82
2023/04/22 09:37:58;;;;;;;1999.90;999.90;;;20.20;87.60;;;;;;5057523;28;20821;-81
2023/04/22 09:40:25;;;;;;;1999.90;999.90;;;20.20;87.00;;;;;;5039376;28;20490;-82
2023/04/22 09:42:52;;;;;;;1999.90;999.90;;;20.10;84.50;;;;;;5039990;28;20453;-82
2023/04/22 09:45:36;;;;;;;1999.90;999.90;;;20.60;84.00;;;;;;5040189;28;20038;-82
2023/04/22 09:48:16;;;;;;;1999.90;999.90;;;21.10;80.10;;;;;;5039695;28;20036;-82
2023/04/22 09:50:44;;;;;;;1999.90;999.90;;;21.30;82.20;;;;;;5039774;28;20039;-82
2023/04/22 09:53:13;;;;;;;1999.90;999.90;;;21.50;81.80;;;;;;5039919;28;20578;-82
2023/04/22 09:55:42;;;;;;;1999.90;999.90;;;21.80;78.40;;;;;;5058080;28;20041;-82
2023/04/22 09:58:13;;;;;;;1999.90;999.90;;;21.70;77.20;;;;;;5039564;28;20503;-82
2023/04/22 10:00:41;;;;;;;1999.90;999.90;;;21.70;79.40;;;;;;5059152;28;20037;-82
2023/04/22 10:03:45;;;;;;;1999.90;999.90;;;21.70;81.60;;;;;;5045505;28;20030;-82
2023/04/22 10:06:11;;;;;;;1999.90;999.90;;;21.50;79.40;;;;;;5037412;28;20093;-84
2023/04/22 10:08:36;;;;;;;1999.90;999.90;;;21.80;79.80;;;;;;5021896;28;20117;-84
2023/04/22 10:11:02;;;;;;;1999.90;999.90;;;22.00;78.90;;;;;;5040265;28;20435;-82
2023/04/22 10:13:28;;;;;;;1999.90;999.90;;;22.30;77.40;;;;;;5038129;28;20117;-83
2023/04/22 10:15:55;;;;;;;1999.90;999.90;;;22.40;76.00;;;;;;5056872;28;20428;-84
2023/04/22 10:18:24;;;;;;;1999.90;999.90;;;22.70;74.90;;;;;;5058774;28;20495;-80
2023/04/22 10:20:50;;;;;;;1999.90;999.90;;;22.90;74.60;;;;;;5041718;28;20121;-82
2023/04/22 10:23:22;;;;;;;1999.90;999.90;;;22.60;71.60;;;;;;5042031;28;20034;-82
2023/04/22 10:25:57;;;;;;;1999.90;999.90;;;22.40;71.70;;;;;;5041286;28;20427;-83
2023/04/22 10:28:26;;;;;;;1999.90;999.90;;;22.70;74.70;;;;;;5060051;28;20044;-83
2023/04/22 10:30:52;;;;;;;1999.90;999.90;;;22.60;71.10;;;;;;5042118;28;20037;-83
2023/04/22 10:33:22;;;;;;;1999.90;999.90;;;22.40;72.80;;;;;;5040981;28;20034;-83
2023/04/22 10:36:13;;;;;;;1999.90;999.90;;;22.90;70.90;;;;;;5039102;28;20072;-82
2023/04/22 10:39:01;;;;;;;1999.90;999.90;;;23.20;69.90;;;;;;5039761;28;20037;-83
2023/04/22 10:41:32;;;;;;;1999.90;999.90;;;23.20;70.90;;;;;;5036679;28;20037;-83
2023/04/22 10:44:05;;;;;;;1999.90;999.90;;;23.50;66.50;;;;;;5037273;28;20046;-83
2023/04/22 10:46:36;;;;;;;1999.90;999.90;;;23.50;68.10;;;;;;5018551;28;20034;-83
2023/04/22 10:49:14;;;;;;;1999.90;999.90;;;23.60;66.50;;;;;;5022777;28;20026;-83
2023/04/22 10:51:45;;;;;;;1999.90;999.90;;;23.60;65.30;;;;;;5023232;28;20026;-83
2023/04/22 10:54:35;;;;;;;1999.90;999.90;;;23.10;67.40;;;;;;5040484;28;20052;-84
2023/04/22 10:57:06;;;;;;;1999.90;999.90;;;22.80;69.70;;;;;;5042287;28;20045;-83
2023/04/22 10:59:50;;;;;;;1999.90;999.90;;;22.60;67.70;;;;;;5042325;28;20131;-82
2023/04/22 11:02:16;;;;;;;1999.90;999.90;;;22.40;66.30;;;;;;5040901;28;20033;-82
2023/04/22 11:04:42;;;;;;;1999.90;999.90;;;22.50;67.10;;;;;;5044316;28;20048;-82
2023/04/22 11:07:19;;;;;;;1999.90;999.90;;;22.60;66.90;;;;;;5068438;28;20139;-85
2023/04/22 11:09:48;;;;;;;1999.90;999.90;;;22.90;68.30;;;;;;5051547;28;20403;-83
2023/04/22 11:12:40;;;;;;;1999.90;999.90;;;23.20;68.30;;;;;;5044555;28;20159;-85
2023/04/22 11:15:15;;;;;;;1999.90;999.90;;;23.40;65.70;;;;;;5064994;28;20040;-82
2023/04/22 11:17:43;;;;;;;1999.90;999.90;;;23.70;68.20;;;;;;5040341;28;20034;-81
2023/04/22 11:20:11;;;;;;;1999.90;999.90;;;24.00;68.60;;;;;;5040513;28;20041;-82
2023/04/22 11:22:41;;;;;;;1999.90;999.90;;;24.10;65.10;;;;;;5040956;28;20026;-83
2023/04/22 11:25:09;;;;;;;1999.90;999.90;;;24.00;65.00;;;;;;5041824;28;20033;-86
2023/04/22 11:27:35;;;;;;;1999.90;999.90;;;24.00;64.70;;;;;;5041159;28;20033;-84
2023/04/22 11:30:04;;;;;;;1999.90;999.90;;;24.50;63.30;;;;;;5041720;28;20041;-80
2023/04/22 11:32:31;;;;;;;1999.90;999.90;;;24.70;62.50;;;;;;5043345;28;20917;-81
2023/04/22 11:34:57;;;;;;;1999.90;999.90;;;24.70;58.50;;;;;;5058136;28;20037;-84
2023/04/22 11:37:23;;;;;;;1999.90;999.90;;;24.90;56.80;;;;;;5055460;28;20033;-77
2023/04/22 11:39:52;;;;;;;1999.90;999.90;;;24.90;57.00;;;;;;5060375;28;20073;-78
2023/04/22 11:42:23;;;;;;;1999.90;999.90;;;24.80;63.00;;;;;;5044932;28;20104;-81
2023/04/22 11:44:50;;;;;;;1999.90;999.90;;;24.70;57.90;;;;;;5021686;28;20046;-81
2023/04/22 11:47:16;;;;;;;1999.90;999.90;;;24.90;59.40;;;;;;5038135;28;20052;-86
2023/04/22 11:49:52;;;;;;;1999.90;999.90;;;25.20;61.40;;;;;;5023280;28;20044;-83
2023/04/22 11:52:18;;;;;;;1999.90;999.90;;;25.20;57.50;;;;;;5039377;28;20038;-80
2023/04/22 11:54:45;;;;;;;1999.90;999.90;;;25.20;57.50;;;;;;5039876;28;20097;-82
2023/04/22 11:57:14;;;;;;;1999.90;999.90;;;25.10;55.40;;;;;;5023889;28;20564;-84
2023/04/22 11:59:40;;;;;;;1999.90;999.90;;;25.20;56.70;;;;;;5056759;28;20041;-82